createdAt,value
2023-04-26T00:00:55.435Z,7.30
2023-04-26T00:03:27.600Z,7.30
2023-04-26T00:06:05.724Z,7.20
2023-04-26T00:08:37.458Z,7.20
2023-04-26T00:11:09.231Z,7.10
2023-04-26T00:13:41.021Z,7.00
2023-04-26T00:16:14.120Z,6.90
2023-04-26T00:18:46.342Z,6.90
2023-04-26T00:21:18.002Z,6.80
2023-04-26T00:23:49.738Z,6.70
2023-04-26T00:26:21.588Z,6.70
2023-04-26T00:28:53.661Z,6.70
2023-04-26T00:31:25.884Z,6.60
2023-04-26T00:33:57.693Z,6.60
2023-04-26T00:36:29.401Z,6.50
2023-04-26T00:39:01.093Z,6.40
2023-04-26T00:41:33.365Z,6.30
2023-04-26T00:44:05.138Z,6.30
2023-04-26T00:46:36.870Z,6.20
2023-04-26T00:49:08.936Z,6.20
2023-04-26T00:51:40.720Z,6.10
2023-04-26T00:54:13.487Z,6.10
2023-04-26T00:56:45.935Z,6.10
2023-04-26T00:59:18.028Z,6.10
2023-04-26T01:01:49.755Z,6.00
2023-04-26T01:04:21.675Z,5.90
2023-04-26T01:06:56.008Z,5.80
2023-04-26T01:09:31.643Z,5.70
2023-04-26T01:12:06.627Z,5.70
2023-04-26T01:14:40.058Z,5.60
2023-04-26T01:17:11.774Z,5.50
2023-04-26T01:19:52.018Z,5.60
2023-04-26T01:22:23.783Z,5.60
2023-04-26T01:24:56.461Z,5.60
2023-04-26T01:27:28.266Z,5.60
2023-04-26T01:29:59.974Z,5.60
2023-04-26T01:32:31.893Z,5.60
2023-04-26T01:35:03.999Z,5.60
2023-04-26T01:37:35.890Z,5.60
2023-04-26T01:40:08.302Z,5.60
2023-04-26T01:42:42.073Z,5.60
2023-04-26T01:45:13.810Z,5.60
2023-04-26T01:48:04.219Z,5.60
2023-04-26T01:50:37.261Z,5.50
2023-04-26T01:53:09.018Z,5.50
2023-04-26T01:55:40.826Z,5.50
2023-04-26T01:58:14.521Z,5.50
2023-04-26T02:00:46.340Z,5.50
2023-04-26T02:03:18.241Z,5.40
2023-04-26T02:05:49.999Z,5.40
2023-04-26T02:08:21.707Z,5.30
2023-04-26T02:10:53.448Z,5.20
2023-04-26T02:13:25.680Z,5.00
2023-04-26T02:15:57.864Z,5.00
2023-04-26T02:18:29.963Z,4.90
2023-04-26T02:21:01.837Z,4.90
2023-04-26T02:23:34.425Z,4.90
2023-04-26T02:26:06.369Z,4.90
2023-04-26T02:28:38.371Z,4.80
2023-04-26T02:31:10.135Z,4.80
2023-04-26T02:33:41.993Z,4.90
2023-04-26T02:36:14.490Z,4.80
2023-04-26T02:38:46.402Z,4.80
2023-04-26T02:41:18.135Z,4.80
2023-04-26T02:43:49.828Z,4.70
2023-04-26T02:46:21.565Z,4.70
2023-04-26T02:48:53.549Z,4.70
2023-04-26T02:51:27.021Z,4.60
2023-04-26T02:53:59.057Z,4.50
2023-04-26T02:56:31.372Z,4.50
2023-04-26T02:59:03.097Z,4.50
2023-04-26T03:01:35.025Z,4.50
2023-04-26T03:04:07.468Z,4.50
2023-04-26T03:06:40.909Z,4.50
2023-04-26T03:09:12.707Z,4.50
2023-04-26T03:11:44.877Z,4.50
2023-04-26T03:14:18.029Z,4.50
2023-04-26T03:16:49.989Z,4.40
2023-04-26T03:19:21.754Z,4.30
2023-04-26T03:21:54.167Z,4.10
2023-04-26T03:24:26.011Z,4.00
2023-04-26T03:26:57.934Z,3.90
2023-04-26T03:29:29.821Z,3.80
2023-04-26T03:32:01.876Z,3.80
2023-04-26T03:34:33.902Z,3.80
2023-04-26T03:37:06.572Z,3.80
2023-04-26T03:39:38.480Z,3.70
2023-04-26T03:42:10.341Z,3.70
2023-04-26T03:44:43.645Z,3.80
2023-04-26T03:47:15.838Z,3.80
2023-04-26T03:49:47.556Z,3.80
2023-04-26T03:52:19.913Z,3.70
2023-04-26T03:54:52.111Z,3.70
2023-04-26T03:57:23.824Z,3.70
2023-04-26T03:59:56.225Z,3.80
2023-04-26T04:02:28.080Z,3.90
2023-04-26T04:05:00.844Z,3.90
2023-04-26T04:07:35.430Z,4.00
2023-04-26T04:10:07.589Z,4.00
2023-04-26T04:12:40.452Z,4.00
2023-04-26T04:15:12.279Z,4.00
2023-04-26T04:17:49.023Z,4.00
2023-04-26T04:20:21.761Z,4.00
2023-04-26T04:22:53.681Z,3.90
2023-04-26T04:25:25.522Z,3.70
2023-04-26T04:27:58.322Z,3.60
2023-04-26T04:30:30.825Z,3.50
2023-04-26T04:33:03.720Z,3.50
2023-04-26T04:35:36.027Z,3.40
2023-04-26T04:38:10.031Z,3.40
2023-04-26T04:40:42.293Z,3.40
2023-04-26T04:43:15.521Z,3.50
2023-04-26T04:45:49.381Z,3.60
2023-04-26T04:48:21.835Z,3.70
2023-04-26T04:50:54.833Z,3.80
2023-04-26T04:53:27.028Z,4.10
2023-04-26T04:55:58.871Z,4.50
2023-04-26T04:58:30.875Z,5.00
2023-04-26T05:01:02.936Z,5.60
2023-04-26T05:03:41.964Z,6.50
2023-04-26T05:06:14.128Z,7.20
2023-04-26T05:08:45.828Z,8.50
2023-04-26T05:11:17.593Z,6.80
2023-04-26T05:13:52.270Z,6.50
2023-04-26T05:16:24.788Z,6.20
2023-04-26T05:18:56.785Z,6.00
2023-04-26T05:21:28.613Z,5.90
2023-04-26T05:24:00.478Z,4.10
2023-04-26T05:26:32.461Z,6.00
2023-04-26T05:29:21.152Z,6.10
2023-04-26T05:32:05.154Z,6.20
2023-04-26T05:35:03.347Z,6.20
2023-04-26T05:37:36.195Z,6.50
2023-04-26T05:40:09.094Z,7.00
2023-04-26T05:42:41.007Z,7.70
2023-04-26T05:45:13.953Z,8.30
2023-04-26T05:47:47.622Z,8.80
2023-04-26T05:50:19.385Z,8.90
2023-04-26T05:52:51.142Z,8.90
2023-04-26T05:55:23.620Z,8.90
2023-04-26T05:57:55.476Z,8.70
2023-04-26T06:00:27.491Z,8.70
2023-04-26T06:02:59.417Z,9.10
2023-04-26T06:05:32.278Z,9.60
2023-04-26T06:08:04.234Z,10.10
2023-04-26T06:10:37.538Z,10.20
2023-04-26T06:13:09.286Z,10.20
2023-04-26T06:15:42.301Z,10.30
2023-04-26T06:18:14.131Z,10.50
2023-04-26T06:20:46.971Z,10.60
2023-04-26T06:23:20.256Z,10.50
2023-04-26T06:25:52.193Z,10.30
2023-04-26T06:28:24.670Z,10.30
2023-04-26T06:30:56.500Z,10.40
2023-04-26T06:33:29.201Z,10.80
2023-04-26T06:36:00.959Z,11.20
2023-04-26T06:38:33.390Z,11.50
2023-04-26T06:41:05.402Z,11.40
2023-04-26T06:43:37.746Z,10.70
2023-04-26T06:46:23.494Z,10.10
2023-04-26T06:48:58.850Z,10.00
2023-04-26T06:51:31.401Z,10.10
2023-04-26T06:54:03.088Z,10.30
2023-04-26T06:56:34.957Z,10.50
2023-04-26T06:59:07.656Z,10.30
2023-04-26T07:01:39.404Z,10.20
2023-04-26T07:04:11.768Z,10.00
2023-04-26T07:06:43.641Z,10.00
2023-04-26T07:09:15.411Z,10.10
2023-04-26T07:11:47.542Z,10.20
2023-04-26T07:14:19.308Z,9.80
2023-04-26T07:16:51.264Z,9.60
2023-04-26T07:19:23.394Z,9.70
2023-04-26T07:21:55.203Z,9.60
2023-04-26T07:24:27.133Z,9.70
2023-04-26T07:26:59.186Z,9.70
2023-04-26T07:29:30.899Z,9.60
2023-04-26T07:32:02.665Z,9.50
2023-04-26T07:34:34.431Z,9.70
2023-04-26T07:37:07.094Z,9.70
2023-04-26T07:39:38.836Z,10.00
2023-04-26T07:42:10.694Z,10.00
2023-04-26T07:44:42.395Z,10.20
2023-04-26T07:47:14.589Z,10.30
2023-04-26T07:49:47.755Z,10.30
2023-04-26T07:52:19.672Z,10.50
2023-04-26T07:54:51.688Z,10.50
2023-04-26T07:57:24.448Z,10.70
2023-04-26T07:59:56.639Z,10.90
2023-04-26T08:02:43.514Z,10.90
2023-04-26T08:05:17.039Z,11.00
2023-04-26T08:07:48.911Z,11.50
2023-04-26T08:10:20.749Z,11.60
2023-04-26T08:12:53.323Z,11.50
2023-04-26T08:15:25.165Z,11.60
2023-04-26T08:17:57.192Z,11.80
2023-04-26T08:20:29.006Z,11.50
2023-04-26T08:23:00.753Z,11.50
2023-04-26T08:25:34.731Z,11.60
2023-04-26T08:28:08.572Z,11.50
2023-04-26T08:30:40.844Z,11.70
2023-04-26T08:33:12.591Z,12.00
2023-04-26T08:35:44.324Z,11.80
2023-04-26T08:38:16.141Z,11.60
2023-04-26T08:40:47.873Z,11.50
2023-04-26T08:43:19.572Z,11.70
2023-04-26T08:45:52.204Z,11.70
2023-04-26T08:48:24.105Z,11.70
2023-04-26T08:50:56.464Z,11.60
2023-04-26T08:53:29.455Z,11.50
2023-04-26T08:56:02.233Z,11.40
2023-04-26T08:58:34.164Z,11.40
2023-04-26T09:01:06.644Z,11.30
2023-04-26T09:03:38.492Z,11.10
2023-04-26T09:06:11.194Z,11.00
2023-04-26T09:08:44.004Z,11.10
2023-04-26T09:11:15.784Z,11.30
2023-04-26T09:13:47.759Z,11.50
2023-04-26T09:16:19.883Z,11.40
2023-04-26T09:18:52.594Z,10.90
2023-04-26T09:21:25.025Z,10.40
2023-04-26T09:24:04.280Z,10.70
2023-04-26T09:26:36.202Z,11.00
2023-04-26T09:29:13.144Z,10.90
2023-04-26T09:31:49.500Z,10.90
2023-04-26T09:34:21.868Z,11.10
2023-04-26T09:36:57.855Z,11.20
2023-04-26T09:39:38.118Z,11.30
2023-04-26T09:42:11.179Z,11.70
2023-04-26T09:44:42.891Z,11.70
2023-04-26T09:47:14.641Z,11.80
2023-04-26T09:49:51.552Z,11.90
2023-04-26T09:52:23.279Z,11.70
2023-04-26T09:54:55.716Z,11.60
2023-04-26T09:57:27.421Z,11.20
2023-04-26T10:00:00.860Z,11.50
2023-04-26T10:02:33.082Z,11.90
2023-04-26T10:05:07.153Z,12.20
2023-04-26T10:07:41.277Z,12.00
2023-04-26T10:10:13.231Z,12.00
2023-04-26T10:12:45.758Z,11.90
2023-04-26T10:15:19.221Z,11.60
2023-04-26T10:17:52.241Z,11.80
2023-04-26T10:20:28.358Z,12.00
2023-04-26T10:23:03.577Z,12.10
2023-04-26T10:25:40.750Z,11.80
2023-04-26T10:28:12.773Z,11.50
2023-04-26T10:30:58.369Z,11.40
2023-04-26T10:33:30.265Z,11.10
2023-04-26T10:36:11.089Z,11.10
2023-04-26T10:39:18.508Z,11.30
2023-04-26T10:41:50.230Z,11.40
2023-04-26T10:44:42.214Z,11.40
2023-04-26T10:47:26.838Z,11.60
2023-04-26T10:50:07.313Z,12.10
2023-04-26T10:53:03.512Z,12.20
2023-04-26T10:55:40.451Z,11.60
2023-04-26T10:58:30.401Z,11.30
2023-04-26T11:01:18.619Z,11.00
2023-04-26T11:03:56.791Z,11.00
2023-04-26T11:06:51.124Z,11.30
2023-04-26T11:09:39.712Z,11.60
2023-04-26T11:12:13.064Z,11.50
2023-04-26T11:14:48.510Z,11.50
2023-04-26T11:17:20.813Z,11.50
2023-04-26T11:19:52.693Z,11.70
2023-04-26T11:22:24.571Z,12.00
2023-04-26T11:24:56.306Z,12.30
2023-04-26T11:27:28.287Z,12.40
2023-04-26T11:30:04.915Z,12.40
2023-04-26T11:32:36.749Z,12.30
2023-04-26T11:35:09.289Z,12.10
2023-04-26T11:37:41.239Z,12.20
2023-04-26T11:40:15.745Z,12.50
2023-04-26T11:42:47.960Z,13.20
2023-04-26T11:45:19.740Z,13.20
2023-04-26T11:47:51.643Z,12.70
2023-04-26T11:50:26.744Z,12.60
2023-04-26T11:53:01.048Z,12.50
2023-04-26T11:55:34.832Z,12.30
2023-04-26T11:58:11.571Z,12.10
2023-04-26T12:01:05.318Z,12.00
2023-04-26T12:03:37.918Z,12.00
2023-04-26T12:06:09.935Z,12.20
2023-04-26T12:08:41.645Z,12.40
2023-04-26T12:11:16.766Z,12.60
2023-04-26T12:13:48.776Z,12.80
2023-04-26T12:16:26.688Z,13.00
2023-04-26T12:18:58.698Z,13.20
2023-04-26T12:21:31.124Z,13.20
2023-04-26T12:24:03.002Z,13.30
2023-04-26T12:26:45.040Z,13.00
2023-04-26T12:29:16.787Z,13.00
2023-04-26T12:31:48.924Z,12.70
2023-04-26T12:34:20.829Z,12.50
2023-04-26T12:36:52.806Z,12.50
2023-04-26T12:39:24.541Z,12.50
2023-04-26T12:41:56.488Z,12.70
2023-04-26T12:44:28.276Z,12.90
2023-04-26T12:46:59.997Z,12.90
2023-04-26T12:49:31.888Z,13.10
2023-04-26T12:52:03.582Z,13.10
2023-04-26T12:54:35.276Z,13.20
2023-04-26T12:57:07.091Z,13.10
2023-04-26T12:59:38.769Z,13.00
2023-04-26T13:02:10.551Z,13.10
2023-04-26T13:04:42.543Z,13.10
2023-04-26T13:07:14.505Z,13.10
2023-04-26T13:09:46.416Z,12.90
2023-04-26T13:12:18.184Z,12.50
2023-04-26T13:14:49.906Z,12.20
2023-04-26T13:17:23.241Z,12.00
2023-04-26T13:19:55.037Z,12.00
2023-04-26T13:22:26.978Z,12.20
2023-04-26T13:24:58.661Z,12.40
2023-04-26T13:27:31.732Z,12.60
2023-04-26T13:30:03.892Z,12.50
2023-04-26T13:32:36.007Z,12.40
2023-04-26T13:35:08.212Z,12.50
2023-04-26T13:37:39.927Z,12.50
2023-04-26T13:40:12.065Z,12.50
2023-04-26T13:42:43.782Z,12.60
2023-04-26T13:45:17.020Z,12.40
2023-04-26T13:47:49.947Z,12.30
2023-04-26T13:50:21.927Z,12.40
2023-04-26T13:52:53.972Z,13.20
2023-04-26T13:55:25.833Z,12.50
2023-04-26T13:57:57.746Z,12.60
2023-04-26T14:00:29.463Z,12.70
2023-04-26T14:03:01.290Z,12.60
2023-04-26T14:05:33.333Z,12.60
2023-04-26T14:08:05.945Z,12.70
2023-04-26T14:10:37.659Z,12.80
2023-04-26T14:13:09.396Z,13.10
2023-04-26T14:15:41.305Z,13.30
2023-04-26T14:18:13.140Z,13.30
2023-04-26T14:20:44.904Z,13.10
2023-04-26T14:23:16.873Z,13.10
2023-04-26T14:25:52.476Z,13.10
2023-04-26T14:28:24.219Z,13.20
2023-04-26T14:30:55.984Z,13.10
2023-04-26T14:33:27.943Z,12.90
2023-04-26T14:35:59.733Z,12.80
2023-04-26T14:38:31.678Z,13.00
2023-04-26T14:41:03.462Z,13.20
2023-04-26T14:43:35.163Z,13.20
2023-04-26T14:46:07.966Z,13.10
2023-04-26T14:48:40.002Z,13.10
2023-04-26T14:51:11.896Z,13.30
2023-04-26T14:53:43.574Z,13.40
2023-04-26T14:56:15.272Z,13.40
2023-04-26T14:58:46.955Z,13.30
2023-04-26T15:01:18.733Z,13.10
2023-04-26T15:03:50.654Z,13.00
2023-04-26T15:06:22.583Z,13.10
2023-04-26T15:08:54.373Z,13.20
2023-04-26T15:11:26.118Z,13.50
2023-04-26T15:13:57.890Z,13.70
2023-04-26T15:16:30.142Z,13.70
2023-04-26T15:19:01.908Z,13.80
2023-04-26T15:21:34.354Z,13.90
2023-04-26T15:24:07.692Z,13.90
2023-04-26T15:26:39.508Z,13.80
2023-04-26T15:29:11.462Z,13.40
2023-04-26T15:31:43.237Z,13.50
2023-04-26T15:34:16.063Z,13.60
2023-04-26T15:36:47.750Z,13.70
2023-04-26T15:39:20.011Z,13.80
2023-04-26T15:41:51.838Z,13.90
2023-04-26T15:44:23.614Z,13.80
2023-04-26T15:46:55.755Z,14.00
2023-04-26T15:49:27.509Z,14.00
2023-04-26T15:51:59.180Z,13.90
2023-04-26T15:54:30.994Z,13.90
2023-04-26T15:57:03.989Z,13.60
2023-04-26T15:59:35.927Z,13.20
2023-04-26T16:02:07.794Z,13.00
2023-04-26T16:04:39.753Z,12.80
2023-04-26T16:07:11.786Z,12.80
2023-04-26T16:09:44.764Z,12.60
2023-04-26T16:12:16.480Z,12.60
2023-04-26T16:14:48.955Z,12.60
2023-04-26T16:17:20.685Z,12.80
2023-04-26T16:19:52.367Z,12.90
2023-04-26T16:22:24.097Z,13.00
2023-04-26T16:24:55.966Z,13.00
2023-04-26T16:27:27.883Z,12.80
2023-04-26T16:29:59.671Z,12.80
2023-04-26T16:32:31.811Z,12.80
2023-04-26T16:35:03.993Z,12.60
2023-04-26T16:37:35.840Z,12.40
2023-04-26T16:40:09.643Z,12.30
2023-04-26T16:42:43.282Z,12.30
2023-04-26T16:45:16.473Z,12.30
2023-04-26T16:47:48.488Z,12.40
2023-04-26T16:50:20.348Z,12.50
2023-04-26T16:52:52.365Z,12.60
2023-04-26T16:55:24.873Z,12.50
2023-04-26T16:57:56.697Z,12.40
2023-04-26T17:00:28.415Z,12.30
2023-04-26T17:03:00.293Z,12.30
2023-04-26T17:05:36.965Z,12.20
2023-04-26T17:08:09.296Z,12.00
2023-04-26T17:10:41.082Z,11.80
2023-04-26T17:13:13.339Z,11.70
2023-04-26T17:15:45.193Z,11.70
2023-04-26T17:18:16.913Z,11.70
2023-04-26T17:20:52.826Z,11.70
2023-04-26T17:23:24.539Z,11.60
2023-04-26T17:25:56.458Z,11.60
2023-04-26T17:28:28.421Z,11.60
2023-04-26T17:31:00.593Z,11.50
2023-04-26T17:33:32.567Z,11.40
2023-04-26T17:36:04.677Z,11.30
2023-04-26T17:38:36.633Z,11.30
2023-04-26T17:41:08.432Z,11.10
2023-04-26T17:43:40.510Z,13.20
2023-04-26T17:46:12.505Z,11.10
2023-04-26T17:48:44.561Z,11.10
2023-04-26T17:51:16.393Z,11.10
2023-04-26T17:53:48.156Z,11.00
2023-04-26T17:56:19.959Z,11.00
2023-04-26T17:58:51.636Z,10.90
2023-04-26T18:01:23.392Z,10.90
2023-04-26T18:03:55.216Z,10.80
2023-04-26T18:06:28.156Z,10.80
2023-04-26T18:08:59.902Z,10.80
2023-04-26T18:11:32.034Z,10.70
2023-04-26T18:14:03.810Z,10.80
2023-04-26T18:16:35.574Z,10.80
2023-04-26T18:19:07.857Z,10.70
2023-04-26T18:21:40.872Z,10.70
2023-04-26T18:24:12.557Z,10.70
2023-04-26T18:26:44.295Z,10.70
2023-04-26T18:29:16.012Z,10.70
2023-04-26T18:31:49.433Z,10.60
2023-04-26T18:34:21.533Z,10.60
2023-04-26T18:36:53.261Z,10.50
2023-04-26T18:39:25.035Z,10.50
2023-04-26T18:41:56.720Z,10.40
2023-04-26T18:44:28.527Z,10.40
2023-04-26T18:47:00.383Z,10.40
2023-04-26T18:49:32.180Z,10.30
2023-04-26T18:52:04.147Z,10.30
2023-04-26T18:54:38.279Z,10.20
2023-04-26T18:57:10.676Z,10.20
2023-04-26T18:59:42.376Z,10.10
2023-04-26T19:02:14.256Z,10.00
2023-04-26T19:04:49.732Z,9.90
2023-04-26T19:07:22.233Z,9.80
2023-04-26T19:09:58.955Z,9.70
2023-04-26T19:12:32.059Z,9.70
2023-04-26T19:15:04.034Z,9.70
2023-04-26T19:17:35.787Z,9.70
2023-04-26T19:20:12.474Z,9.70
2023-04-26T19:22:46.952Z,9.70
2023-04-26T19:25:23.075Z,9.60
2023-04-26T19:27:54.861Z,9.60
2023-04-26T19:30:26.725Z,9.60
2023-04-26T19:32:58.479Z,9.60
2023-04-26T19:35:30.208Z,9.60
2023-04-26T19:38:01.991Z,9.50
2023-04-26T19:40:33.675Z,9.50
2023-04-26T19:43:05.607Z,9.50
2023-04-26T19:45:39.257Z,9.40
2023-04-26T19:48:11.056Z,9.40
2023-04-26T19:50:44.851Z,9.30
2023-04-26T19:53:16.643Z,9.20
2023-04-26T19:55:48.762Z,9.10
2023-04-26T19:58:20.760Z,9.10
2023-04-26T20:00:52.545Z,9.00
2023-04-26T20:03:24.708Z,9.00
2023-04-26T20:05:56.564Z,8.90
2023-04-26T20:08:29.251Z,8.80
2023-04-26T20:11:04.475Z,8.80
2023-04-26T20:13:36.285Z,8.70
2023-04-26T20:16:08.143Z,8.60
2023-04-26T20:18:39.836Z,8.50
2023-04-26T20:21:11.681Z,8.50
2023-04-26T20:23:43.360Z,8.50
2023-04-26T20:26:15.116Z,8.40
2023-04-26T20:28:47.465Z,8.40
2023-04-26T20:31:19.448Z,8.30
2023-04-26T20:33:51.325Z,8.20
2023-04-26T20:36:23.141Z,8.10
2023-04-26T20:38:54.831Z,8.10
2023-04-26T20:41:26.754Z,8.00
2023-04-26T20:43:58.445Z,7.90
2023-04-26T20:46:30.202Z,7.90
2023-04-26T20:49:02.555Z,7.80
2023-04-26T20:51:34.421Z,7.80
2023-04-26T20:54:06.183Z,7.70
2023-04-26T20:56:37.864Z,7.60
2023-04-26T20:59:09.813Z,7.50
2023-04-26T21:01:41.823Z,7.50
2023-04-26T21:04:13.706Z,7.40
2023-04-26T21:06:45.765Z,7.40
2023-04-26T21:09:17.518Z,7.30
2023-04-26T21:11:49.225Z,7.40
2023-04-26T21:14:20.947Z,7.30
2023-04-26T21:16:52.655Z,7.30
2023-04-26T21:19:24.361Z,7.30
2023-04-26T21:21:56.663Z,7.30
2023-04-26T21:24:28.384Z,7.30
2023-04-26T21:27:00.251Z,7.40
2023-04-26T21:29:32.061Z,7.30
2023-04-26T21:32:03.885Z,7.30
2023-04-26T21:34:36.492Z,7.30
2023-04-26T21:37:08.219Z,7.30
2023-04-26T21:39:39.888Z,7.30
2023-04-26T21:42:11.657Z,7.30
2023-04-26T21:44:43.342Z,7.30
2023-04-26T21:47:15.041Z,7.30
2023-04-26T21:49:46.725Z,7.20
2023-04-26T21:52:18.905Z,7.20
2023-04-26T21:54:52.797Z,7.10
2023-04-26T21:57:24.770Z,7.10
2023-04-26T21:59:56.677Z,7.10
2023-04-26T22:02:28.698Z,7.10
2023-04-26T22:05:00.564Z,7.00
2023-04-26T22:07:32.604Z,7.00
2023-04-26T22:10:04.757Z,7.00
2023-04-26T22:12:36.548Z,7.00
2023-04-26T22:15:08.586Z,7.00
2023-04-26T22:17:40.745Z,7.00
2023-04-26T22:20:12.961Z,6.90
2023-04-26T22:22:44.675Z,6.80
2023-04-26T22:25:16.461Z,6.80
2023-04-26T22:27:48.658Z,6.70
2023-04-26T22:30:24.601Z,6.70
2023-04-26T22:32:59.606Z,6.70
2023-04-26T22:35:31.417Z,6.60
2023-04-26T22:38:03.116Z,6.70
2023-04-26T22:40:35.336Z,6.70
2023-04-26T22:43:07.080Z,6.70
2023-04-26T22:45:38.822Z,6.70
2023-04-26T22:48:10.903Z,6.80
2023-04-26T22:50:42.637Z,6.80
2023-04-26T22:53:14.408Z,6.80
2023-04-26T22:55:46.186Z,6.80
2023-04-26T22:58:18.011Z,6.80
2023-04-26T23:00:49.765Z,6.80
2023-04-26T23:03:21.649Z,6.80
2023-04-26T23:05:53.545Z,6.80
2023-04-26T23:08:25.366Z,6.80
2023-04-26T23:10:57.126Z,6.70
2023-04-26T23:13:29.529Z,6.60
2023-04-26T23:16:01.291Z,6.60
2023-04-26T23:18:32.990Z,6.50
2023-04-26T23:21:05.377Z,6.50
2023-04-26T23:23:37.195Z,6.50
2023-04-26T23:26:08.930Z,6.40
2023-04-26T23:28:40.738Z,6.30
2023-04-26T23:31:12.458Z,6.30
2023-04-26T23:33:44.203Z,6.30
2023-04-26T23:36:15.948Z,6.30
2023-04-26T23:38:47.617Z,6.40
2023-04-26T23:41:19.428Z,6.50
2023-04-26T23:43:51.118Z,6.50
2023-04-26T23:46:22.877Z,6.40
2023-04-26T23:48:54.635Z,6.40
2023-04-26T23:51:27.540Z,6.30
2023-04-26T23:53:59.288Z,6.20
2023-04-26T23:56:31.444Z,6.20
2023-04-26T23:59:03.126Z,6.20
